createdAt,value
2023-04-30T00:00:36.294Z,98799.25
2023-04-30T00:06:06.503Z,98798.78
2023-04-30T00:11:32.316Z,98801.94
2023-04-30T00:16:58.333Z,98808.84
2023-04-30T00:22:26.343Z,98803.63
2023-04-30T00:27:50.459Z,98813.81
2023-04-30T00:33:21.336Z,98823.38
2023-04-30T00:38:49.341Z,98821.34
2023-04-30T00:44:14.342Z,98822.03
2023-04-30T00:49:39.315Z,98832.31
2023-04-30T00:55:06.317Z,98842.84
2023-04-30T01:00:31.486Z,98850.91
2023-04-30T01:05:56.362Z,98854.13
2023-04-30T01:11:32.347Z,98854.38
2023-04-30T01:17:03.327Z,98862.09
2023-04-30T01:22:41.333Z,98868.16
2023-04-30T01:28:18.345Z,98876.09
2023-04-30T01:33:43.315Z,98876.16
2023-04-30T01:39:22.318Z,98886.38
2023-04-30T01:45:04.341Z,98898.09
2023-04-30T01:50:36.369Z,98891.31
2023-04-30T01:56:08.344Z,98904.19
2023-04-30T02:01:45.387Z,98910.75
2023-04-30T02:07:10.350Z,98919.22
2023-04-30T02:12:37.339Z,98928.13
2023-04-30T02:18:05.398Z,98938.88
2023-04-30T02:23:30.353Z,98942.28
2023-04-30T02:28:55.530Z,98948.09
2023-04-30T02:34:29.401Z,98944.56
2023-04-30T02:39:54.787Z,98954.56
2023-04-30T02:45:20.358Z,98945.94
2023-04-30T02:50:48.372Z,98944.84
2023-04-30T02:56:12.354Z,98950.25
2023-04-30T03:01:37.530Z,98961.19
2023-04-30T03:07:04.380Z,98955.00
2023-04-30T03:12:29.420Z,98962.56
2023-04-30T03:17:54.424Z,98965.75
2023-04-30T03:23:22.386Z,98963.19
2023-04-30T03:28:47.623Z,98960.16
2023-04-30T03:34:20.410Z,98970.50
2023-04-30T03:39:48.395Z,98965.53
2023-04-30T03:45:12.425Z,98974.91
2023-04-30T03:50:37.405Z,98973.47
2023-04-30T03:56:06.383Z,98975.41
2023-04-30T04:01:31.441Z,98990.72
2023-04-30T04:06:55.438Z,98982.91
2023-04-30T04:12:23.559Z,98983.81
2023-04-30T04:17:47.475Z,98982.09
2023-04-30T04:23:12.440Z,98989.88
2023-04-30T04:28:39.420Z,99003.47
2023-04-30T04:34:05.555Z,99010.25
2023-04-30T04:39:29.435Z,99021.75
2023-04-30T04:44:57.466Z,99037.91
2023-04-30T04:50:24.432Z,99046.16
2023-04-30T04:55:49.555Z,99042.88
2023-04-30T05:01:17.518Z,99041.78
2023-04-30T05:06:42.522Z,99056.09
2023-04-30T05:12:09.430Z,99064.31
2023-04-30T05:17:37.485Z,99066.41
2023-04-30T05:23:01.624Z,99068.88
2023-04-30T05:28:26.469Z,99077.72
2023-04-30T05:34:00.470Z,99075.19
2023-04-30T05:39:25.518Z,99079.44
2023-04-30T05:44:49.501Z,99088.69
2023-04-30T05:50:19.476Z,99084.38
2023-04-30T05:55:44.513Z,99089.78
2023-04-30T06:01:09.500Z,99087.03
2023-04-30T06:06:37.530Z,99079.50
2023-04-30T06:12:03.476Z,99080.78
2023-04-30T06:17:27.474Z,99072.91
2023-04-30T06:22:55.484Z,99076.66
2023-04-30T06:28:21.492Z,99066.91
2023-04-30T06:33:46.477Z,99065.94
2023-04-30T06:39:13.545Z,99058.88
2023-04-30T06:44:38.509Z,99063.53
2023-04-30T06:50:03.502Z,99069.34
2023-04-30T06:55:31.518Z,99061.28
2023-04-30T07:00:55.721Z,99068.91
2023-04-30T07:06:21.524Z,99066.56
2023-04-30T07:11:49.542Z,99061.34
2023-04-30T07:17:14.506Z,99059.63
2023-04-30T07:22:38.569Z,99064.13
2023-04-30T07:28:06.517Z,99061.72
2023-04-30T07:33:31.568Z,99055.88
2023-04-30T07:38:56.519Z,99048.09
2023-04-30T07:44:24.502Z,99050.25
2023-04-30T07:49:55.758Z,99051.03
2023-04-30T07:55:20.534Z,99064.16
2023-04-30T08:00:47.505Z,99064.72
2023-04-30T08:06:13.542Z,99063.16
2023-04-30T08:11:37.534Z,99072.75
2023-04-30T08:17:06.495Z,99072.84
2023-04-30T08:22:31.505Z,99058.91
2023-04-30T08:27:58.004Z,99066.88
2023-04-30T08:33:24.652Z,99062.09
2023-04-30T08:38:49.551Z,99062.13
2023-04-30T08:44:17.582Z,99054.81
2023-04-30T08:49:45.551Z,99065.91
2023-04-30T08:55:12.546Z,99059.06
2023-04-30T09:00:37.560Z,99056.91
2023-04-30T09:06:04.604Z,99054.94
2023-04-30T09:11:34.572Z,99054.59
2023-04-30T09:17:04.572Z,99057.69
2023-04-30T09:22:33.581Z,99061.00
2023-04-30T09:27:58.536Z,99062.59
2023-04-30T09:33:23.600Z,99058.25
2023-04-30T09:38:51.579Z,99054.44
2023-04-30T09:44:16.603Z,99048.06
2023-04-30T09:49:40.571Z,99048.75
2023-04-30T09:55:08.570Z,99039.56
2023-04-30T10:00:34.617Z,99040.53
2023-04-30T10:06:00.658Z,99037.00
2023-04-30T10:11:33.566Z,99035.16
2023-04-30T10:17:04.614Z,99023.78
2023-04-30T10:22:29.609Z,99024.22
2023-04-30T10:27:57.599Z,99012.03
2023-04-30T10:33:32.574Z,99006.16
2023-04-30T10:38:58.595Z,99007.41
2023-04-30T10:44:25.612Z,98998.81
2023-04-30T10:49:55.969Z,99001.00
2023-04-30T10:55:21.604Z,99001.22
2023-04-30T11:01:00.672Z,98988.59
2023-04-30T11:06:33.637Z,98990.09
2023-04-30T11:12:12.602Z,98983.91
2023-04-30T11:17:42.635Z,98987.19
2023-04-30T11:23:28.492Z,98981.13
2023-04-30T11:29:07.698Z,98973.91
2023-04-30T11:34:43.654Z,98961.69
2023-04-30T11:40:11.668Z,98964.13
2023-04-30T11:45:37.687Z,98961.41
2023-04-30T11:51:05.668Z,98961.66
2023-04-30T11:56:30.649Z,98951.56
2023-04-30T12:01:55.694Z,98946.66
2023-04-30T12:07:23.649Z,98947.91
2023-04-30T12:12:49.292Z,98931.88
2023-04-30T12:18:16.718Z,98944.78
2023-04-30T12:23:44.645Z,98940.09
2023-04-30T12:29:16.634Z,98937.16
2023-04-30T12:34:42.664Z,98934.16
2023-04-30T12:40:11.710Z,98927.50
2023-04-30T12:45:57.693Z,98922.91
2023-04-30T12:51:21.671Z,98925.22
2023-04-30T12:56:52.689Z,98918.38
2023-04-30T13:02:24.784Z,98907.16
2023-04-30T13:07:49.681Z,98912.03
2023-04-30T13:13:16.752Z,98906.09
2023-04-30T13:18:41.797Z,98903.72
2023-04-30T13:24:05.711Z,98901.97
2023-04-30T13:29:40.899Z,98899.50
2023-04-30T13:35:05.670Z,98893.78
2023-04-30T13:40:29.710Z,98898.53
2023-04-30T13:45:57.795Z,98894.91
2023-04-30T13:51:22.719Z,98888.88
2023-04-30T13:56:47.739Z,98882.19
2023-04-30T14:02:15.696Z,98870.78
2023-04-30T14:07:40.725Z,98883.03
2023-04-30T14:13:04.709Z,98869.44
2023-04-30T14:18:32.725Z,98878.22
2023-04-30T14:23:58.722Z,98880.94
2023-04-30T14:29:29.753Z,98877.28
2023-04-30T14:34:57.750Z,98850.06
2023-04-30T14:40:23.736Z,98856.97
2023-04-30T14:45:49.842Z,98850.00
2023-04-30T14:51:17.754Z,98847.75
2023-04-30T14:56:42.756Z,98841.16
2023-04-30T15:02:06.854Z,98835.25
2023-04-30T15:07:34.749Z,98834.78
2023-04-30T15:12:58.737Z,98834.88
2023-04-30T15:18:23.747Z,98828.38
2023-04-30T15:23:50.771Z,98828.13
2023-04-30T15:29:21.767Z,98831.88
2023-04-30T15:34:46.783Z,98824.31
2023-04-30T15:40:14.784Z,98823.22
2023-04-30T15:45:40.823Z,98817.78
2023-04-30T15:51:05.774Z,98816.88
2023-04-30T15:56:33.799Z,98812.31
2023-04-30T16:01:58.845Z,98811.78
2023-04-30T16:07:23.800Z,98805.69
2023-04-30T16:12:50.799Z,98800.09
2023-04-30T16:18:16.819Z,98797.88
2023-04-30T16:23:40.815Z,98800.69
2023-04-30T16:29:15.810Z,98790.63
2023-04-30T16:34:40.833Z,98797.34
2023-04-30T16:40:04.858Z,98791.50
2023-04-30T16:45:33.017Z,98778.50
2023-04-30T16:50:56.827Z,98774.94
2023-04-30T16:56:21.817Z,98771.38
2023-04-30T17:01:48.876Z,98777.19
2023-04-30T17:07:13.932Z,98772.72
2023-04-30T17:12:38.951Z,98771.56
2023-04-30T17:18:06.913Z,98773.94
2023-04-30T17:23:33.993Z,98768.88
2023-04-30T17:28:58.843Z,98771.09
2023-04-30T17:34:25.880Z,98778.84
2023-04-30T17:39:50.854Z,98784.50
2023-04-30T17:45:14.897Z,98776.38
2023-04-30T17:50:42.868Z,98774.56
2023-04-30T17:56:07.887Z,98766.38
2023-04-30T18:01:33.884Z,98771.31
2023-04-30T18:07:00.865Z,98761.38
2023-04-30T18:12:27.004Z,98760.94
2023-04-30T18:17:51.956Z,98764.72
2023-04-30T18:23:19.883Z,98769.84
2023-04-30T18:28:51.878Z,98763.94
2023-04-30T18:34:16.884Z,98762.69
2023-04-30T18:39:43.913Z,98755.53
2023-04-30T18:45:08.962Z,98754.50
2023-04-30T18:50:33.893Z,98755.56
2023-04-30T18:56:01.946Z,98753.53
2023-04-30T19:01:28.000Z,98756.13
2023-04-30T19:06:56.044Z,98770.31
2023-04-30T19:12:23.942Z,98779.34
2023-04-30T19:17:49.943Z,98785.84
2023-04-30T19:23:16.904Z,98784.34
2023-04-30T19:28:51.915Z,98797.28
2023-04-30T19:34:20.940Z,98792.81
2023-04-30T19:39:46.941Z,98796.25
2023-04-30T19:45:17.909Z,98782.44
2023-04-30T19:50:49.024Z,98779.94
2023-04-30T19:56:14.961Z,98783.50
2023-04-30T20:01:42.982Z,98770.91
2023-04-30T20:07:07.970Z,98778.00
2023-04-30T20:12:33.155Z,98758.22
2023-04-30T20:18:01.018Z,98757.22
2023-04-30T20:23:30.057Z,98754.25
2023-04-30T20:29:01.023Z,98756.78
2023-04-30T20:34:29.117Z,98751.69
2023-04-30T20:39:55.453Z,98756.78
2023-04-30T20:45:22.152Z,98750.78
2023-04-30T20:50:50.058Z,98745.94
2023-04-30T20:56:16.150Z,98738.31
2023-04-30T21:01:41.080Z,98738.28
2023-04-30T21:07:08.984Z,98730.75
2023-04-30T21:12:35.042Z,98735.03
2023-04-30T21:18:00.089Z,98732.19
2023-04-30T21:23:28.026Z,98734.69
2023-04-30T21:29:01.303Z,98743.78
2023-04-30T21:34:20.020Z,98745.03
2023-04-30T21:39:48.077Z,98731.72
2023-04-30T21:45:12.035Z,98744.91
2023-04-30T21:50:38.029Z,98735.84
2023-04-30T21:56:04.997Z,98741.41
2023-04-30T22:01:34.110Z,98760.19
2023-04-30T22:06:59.036Z,98759.00
2023-04-30T22:12:28.042Z,98759.22
2023-04-30T22:17:53.039Z,98757.41
2023-04-30T22:23:17.978Z,98751.84
2023-04-30T22:28:45.982Z,98747.00
2023-04-30T22:34:12.998Z,98728.53
2023-04-30T22:39:37.060Z,98727.28
2023-04-30T22:45:05.049Z,98736.38
2023-04-30T22:50:29.025Z,98745.66
2023-04-30T22:55:55.103Z,98733.53
2023-04-30T23:01:22.041Z,98738.00
2023-04-30T23:06:47.101Z,98734.84
2023-04-30T23:12:12.023Z,98732.66
2023-04-30T23:17:40.074Z,98735.84
2023-04-30T23:23:04.052Z,98732.06
2023-04-30T23:28:29.031Z,98730.00
2023-04-30T23:33:56.056Z,98725.25
2023-04-30T23:39:21.051Z,98717.00
2023-04-30T23:44:45.043Z,98714.56
2023-04-30T23:50:13.081Z,98707.44
2023-04-30T23:55:37.126Z,98704.03
